sensor_id;sensor_type;location;lat;lon;timestamp;P1;durP1;ratioP1;P2;durP2;ratioP2
30934;SDS011;51033;42.648;23.292;2023-05-10T00:02:22;12.63;;;8.75;;
30934;SDS011;51033;42.648;23.292;2023-05-10T00:04:48;13.00;;;8.35;;
30934;SDS011;51033;42.648;23.292;2023-05-10T00:07:13;11.93;;;8.38;;
30934;SDS011;51033;42.648;23.292;2023-05-10T00:09:39;12.23;;;8.52;;
30934;SDS011;51033;42.648;23.292;2023-05-10T00:12:05;11.75;;;8.50;;
30934;SDS011;51033;42.648;23.292;2023-05-10T00:14:30;10.23;;;9.05;;
30934;SDS011;51033;42.648;23.292;2023-05-10T00:16:56;11.70;;;9.30;;
30934;SDS011;51033;42.648;23.292;2023-05-10T00:19:21;10.45;;;8.80;;
30934;SDS011;51033;42.648;23.292;2023-05-10T00:21:47;9.93;;;8.48;;
30934;SDS011;51033;42.648;23.292;2023-05-10T00:24:12;10.30;;;8.70;;
30934;SDS011;51033;42.648;23.292;2023-05-10T00:26:37;13.25;;;10.02;;
30934;SDS011;51033;42.648;23.292;2023-05-10T00:29:03;12.00;;;9.30;;
30934;SDS011;51033;42.648;23.292;2023-05-10T00:31:28;12.52;;;10.20;;
30934;SDS011;51033;42.648;23.292;2023-05-10T00:33:54;11.55;;;9.35;;
30934;SDS011;51033;42.648;23.292;2023-05-10T00:36:19;11.52;;;9.45;;
30934;SDS011;51033;42.648;23.292;2023-05-10T00:38:45;13.40;;;10.05;;
30934;SDS011;51033;42.648;23.292;2023-05-10T00:41:11;13.23;;;9.57;;
30934;SDS011;51033;42.648;23.292;2023-05-10T00:43:36;12.30;;;9.60;;
30934;SDS011;51033;42.648;23.292;2023-05-10T00:46:01;12.82;;;9.57;;
30934;SDS011;51033;42.648;23.292;2023-05-10T00:48:28;12.98;;;9.25;;
30934;SDS011;51033;42.648;23.292;2023-05-10T00:50:54;11.82;;;10.00;;
30934;SDS011;51033;42.648;23.292;2023-05-10T00:53:20;12.52;;;10.75;;
30934;SDS011;51033;42.648;23.292;2023-05-10T00:55:46;11.30;;;9.38;;
30934;SDS011;51033;42.648;23.292;2023-05-10T00:58:12;12.52;;;10.48;;
30934;SDS011;51033;42.648;23.292;2023-05-10T01:00:37;11.18;;;9.43;;
30934;SDS011;51033;42.648;23.292;2023-05-10T01:03:06;11.95;;;9.95;;
30934;SDS011;51033;42.648;23.292;2023-05-10T01:05:31;12.50;;;10.80;;
30934;SDS011;51033;42.648;23.292;2023-05-10T01:07:57;13.57;;;10.02;;
30934;SDS011;51033;42.648;23.292;2023-05-10T01:10:22;14.40;;;10.77;;
30934;SDS011;51033;42.648;23.292;2023-05-10T01:12:48;13.10;;;10.20;;
30934;SDS011;51033;42.648;23.292;2023-05-10T01:15:13;14.80;;;10.68;;
30934;SDS011;51033;42.648;23.292;2023-05-10T01:17:41;14.02;;;10.40;;
30934;SDS011;51033;42.648;23.292;2023-05-10T01:20:09;12.70;;;10.25;;
30934;SDS011;51033;42.648;23.292;2023-05-10T01:31:08;16.63;;;11.30;;
30934;SDS011;51033;42.648;23.292;2023-05-10T01:36:29;11.80;;;9.93;;
30934;SDS011;51033;42.648;23.292;2023-05-10T01:42:08;13.68;;;10.38;;
30934;SDS011;51033;42.648;23.292;2023-05-10T01:47:09;10.32;;;8.90;;
30934;SDS011;51033;42.648;23.292;2023-05-10T01:49:42;10.70;;;9.32;;
30934;SDS011;51033;42.648;23.292;2023-05-10T01:52:15;13.57;;;9.45;;
30934;SDS011;51033;42.648;23.292;2023-05-10T01:54:59;12.75;;;9.32;;
30934;SDS011;51033;42.648;23.292;2023-05-10T01:57:32;12.00;;;8.57;;
30934;SDS011;51033;42.648;23.292;2023-05-10T01:59:59;9.48;;;8.15;;
30934;SDS011;51033;42.648;23.292;2023-05-10T02:02:27;10.15;;;8.55;;
30934;SDS011;51033;42.648;23.292;2023-05-10T02:04:55;11.57;;;7.93;;
30934;SDS011;51033;42.648;23.292;2023-05-10T02:07:22;9.43;;;7.75;;
30934;SDS011;51033;42.648;23.292;2023-05-10T02:09:49;9.43;;;8.10;;
30934;SDS011;51033;42.648;23.292;2023-05-10T02:12:15;9.63;;;8.02;;
30934;SDS011;51033;42.648;23.292;2023-05-10T02:14:42;9.30;;;7.90;;
30934;SDS011;51033;42.648;23.292;2023-05-10T02:17:08;8.85;;;7.93;;
30934;SDS011;51033;42.648;23.292;2023-05-10T02:19:35;8.82;;;7.35;;
30934;SDS011;51033;42.648;23.292;2023-05-10T02:22:05;9.85;;;7.00;;
30934;SDS011;51033;42.648;23.292;2023-05-10T02:24:33;9.50;;;6.68;;
30934;SDS011;51033;42.648;23.292;2023-05-10T02:27:00;7.88;;;6.60;;
30934;SDS011;51033;42.648;23.292;2023-05-10T02:29:28;12.85;;;7.53;;
30934;SDS011;51033;42.648;23.292;2023-05-10T02:31:56;8.60;;;7.50;;
30934;SDS011;51033;42.648;23.292;2023-05-10T02:34:23;8.93;;;7.55;;
30934;SDS011;51033;42.648;23.292;2023-05-10T02:36:51;8.60;;;6.45;;
30934;SDS011;51033;42.648;23.292;2023-05-10T02:39:18;12.27;;;6.65;;
30934;SDS011;51033;42.648;23.292;2023-05-10T02:41:46;10.32;;;7.43;;
30934;SDS011;51033;42.648;23.292;2023-05-10T02:44:14;11.05;;;7.35;;
30934;SDS011;51033;42.648;23.292;2023-05-10T02:46:42;10.55;;;7.43;;
30934;SDS011;51033;42.648;23.292;2023-05-10T02:49:08;8.80;;;7.22;;
30934;SDS011;51033;42.648;23.292;2023-05-10T02:51:34;9.00;;;7.45;;
30934;SDS011;51033;42.648;23.292;2023-05-10T02:54:12;9.32;;;7.25;;
30934;SDS011;51033;42.648;23.292;2023-05-10T02:56:49;10.55;;;7.07;;
30934;SDS011;51033;42.648;23.292;2023-05-10T02:59:18;9.25;;;6.53;;
30934;SDS011;51033;42.648;23.292;2023-05-10T03:01:44;8.40;;;7.13;;
30934;SDS011;51033;42.648;23.292;2023-05-10T03:04:10;12.60;;;7.43;;
30934;SDS011;51033;42.648;23.292;2023-05-10T03:06:35;9.05;;;6.85;;
30934;SDS011;51033;42.648;23.292;2023-05-10T03:09:01;6.50;;;5.75;;
30934;SDS011;51033;42.648;23.292;2023-05-10T03:16:51;7.07;;;6.30;;
30934;SDS011;51033;42.648;23.292;2023-05-10T03:19:22;9.20;;;6.80;;
30934;SDS011;51033;42.648;23.292;2023-05-10T03:21:52;6.88;;;6.13;;
30934;SDS011;51033;42.648;23.292;2023-05-10T03:24:22;7.80;;;6.35;;
30934;SDS011;51033;42.648;23.292;2023-05-10T03:26:52;11.48;;;6.15;;
30934;SDS011;51033;42.648;23.292;2023-05-10T03:29:22;9.52;;;6.30;;
30934;SDS011;51033;42.648;23.292;2023-05-10T03:31:49;7.32;;;5.90;;
30934;SDS011;51033;42.648;23.292;2023-05-10T03:34:15;11.73;;;6.28;;
30934;SDS011;51033;42.648;23.292;2023-05-10T03:36:41;8.07;;;6.13;;
30934;SDS011;51033;42.648;23.292;2023-05-10T03:39:06;7.70;;;6.90;;
30934;SDS011;51033;42.648;23.292;2023-05-10T03:41:32;6.25;;;5.68;;
30934;SDS011;51033;42.648;23.292;2023-05-10T03:43:57;6.65;;;5.65;;
30934;SDS011;51033;42.648;23.292;2023-05-10T03:46:22;8.23;;;6.65;;
30934;SDS011;51033;42.648;23.292;2023-05-10T03:48:48;9.27;;;6.70;;
30934;SDS011;51033;42.648;23.292;2023-05-10T03:51:13;7.57;;;6.57;;
30934;SDS011;51033;42.648;23.292;2023-05-10T03:53:38;9.85;;;7.60;;
30934;SDS011;51033;42.648;23.292;2023-05-10T03:56:04;9.40;;;6.78;;
30934;SDS011;51033;42.648;23.292;2023-05-10T03:58:29;11.40;;;7.68;;
30934;SDS011;51033;42.648;23.292;2023-05-10T04:00:55;13.65;;;8.02;;
30934;SDS011;51033;42.648;23.292;2023-05-10T04:03:20;16.92;;;6.93;;
30934;SDS011;51033;42.648;23.292;2023-05-10T04:05:46;10.15;;;7.18;;
30934;SDS011;51033;42.648;23.292;2023-05-10T04:08:11;7.20;;;6.50;;
30934;SDS011;51033;42.648;23.292;2023-05-10T04:10:37;7.40;;;6.07;;
30934;SDS011;51033;42.648;23.292;2023-05-10T04:13:02;10.57;;;7.50;;
30934;SDS011;51033;42.648;23.292;2023-05-10T04:15:28;8.10;;;6.50;;
30934;SDS011;51033;42.648;23.292;2023-05-10T04:17:53;11.88;;;7.05;;
30934;SDS011;51033;42.648;23.292;2023-05-10T04:20:19;10.25;;;7.40;;
30934;SDS011;51033;42.648;23.292;2023-05-10T04:22:44;8.38;;;7.05;;
30934;SDS011;51033;42.648;23.292;2023-05-10T04:25:09;7.57;;;6.70;;
30934;SDS011;51033;42.648;23.292;2023-05-10T04:27:35;11.70;;;7.50;;
30934;SDS011;51033;42.648;23.292;2023-05-10T04:30:01;9.55;;;7.63;;
30934;SDS011;51033;42.648;23.292;2023-05-10T04:32:28;9.75;;;7.72;;
30934;SDS011;51033;42.648;23.292;2023-05-10T04:34:54;8.85;;;7.95;;
30934;SDS011;51033;42.648;23.292;2023-05-10T04:37:19;9.02;;;6.88;;
30934;SDS011;51033;42.648;23.292;2023-05-10T04:39:46;10.48;;;7.43;;
30934;SDS011;51033;42.648;23.292;2023-05-10T04:42:11;10.40;;;6.97;;
30934;SDS011;51033;42.648;23.292;2023-05-10T04:44:37;10.90;;;8.40;;
30934;SDS011;51033;42.648;23.292;2023-05-10T04:47:02;10.20;;;7.90;;
30934;SDS011;51033;42.648;23.292;2023-05-10T04:49:28;11.55;;;7.78;;
30934;SDS011;51033;42.648;23.292;2023-05-10T04:51:54;11.60;;;7.97;;
30934;SDS011;51033;42.648;23.292;2023-05-10T04:54:20;10.13;;;8.15;;
30934;SDS011;51033;42.648;23.292;2023-05-10T04:56:45;9.52;;;7.72;;
30934;SDS011;51033;42.648;23.292;2023-05-10T04:59:10;10.15;;;8.15;;
30934;SDS011;51033;42.648;23.292;2023-05-10T05:01:36;13.52;;;7.72;;
30934;SDS011;51033;42.648;23.292;2023-05-10T05:04:01;12.40;;;9.35;;
30934;SDS011;51033;42.648;23.292;2023-05-10T05:06:27;11.70;;;9.20;;
30934;SDS011;51033;42.648;23.292;2023-05-10T05:08:53;10.82;;;8.77;;
30934;SDS011;51033;42.648;23.292;2023-05-10T05:11:18;10.80;;;8.30;;
30934;SDS011;51033;42.648;23.292;2023-05-10T05:13:44;10.15;;;8.27;;
30934;SDS011;51033;42.648;23.292;2023-05-10T05:16:10;11.65;;;8.27;;
30934;SDS011;51033;42.648;23.292;2023-05-10T05:18:36;11.40;;;8.32;;
30934;SDS011;51033;42.648;23.292;2023-05-10T05:21:02;9.52;;;7.97;;
30934;SDS011;51033;42.648;23.292;2023-05-10T05:23:27;11.50;;;8.40;;
30934;SDS011;51033;42.648;23.292;2023-05-10T05:25:53;42.08;;;10.38;;
30934;SDS011;51033;42.648;23.292;2023-05-10T05:28:19;12.98;;;9.23;;
30934;SDS011;51033;42.648;23.292;2023-05-10T05:30:45;14.02;;;9.27;;
30934;SDS011;51033;42.648;23.292;2023-05-10T05:33:11;13.23;;;10.27;;
30934;SDS011;51033;42.648;23.292;2023-05-10T05:35:36;13.45;;;10.25;;
30934;SDS011;51033;42.648;23.292;2023-05-10T05:38:02;14.48;;;8.85;;
30934;SDS011;51033;42.648;23.292;2023-05-10T05:40:27;12.85;;;9.40;;
30934;SDS011;51033;42.648;23.292;2023-05-10T05:42:53;11.50;;;9.32;;
30934;SDS011;51033;42.648;23.292;2023-05-10T05:45:18;13.40;;;9.63;;
30934;SDS011;51033;42.648;23.292;2023-05-10T05:47:44;17.10;;;10.80;;
30934;SDS011;51033;42.648;23.292;2023-05-10T05:50:09;15.75;;;11.13;;
30934;SDS011;51033;42.648;23.292;2023-05-10T05:52:35;16.92;;;12.65;;
30934;SDS011;51033;42.648;23.292;2023-05-10T05:55:01;11.90;;;10.38;;
30934;SDS011;51033;42.648;23.292;2023-05-10T05:57:26;16.25;;;11.63;;
30934;SDS011;51033;42.648;23.292;2023-05-10T05:59:52;15.98;;;11.63;;
30934;SDS011;51033;42.648;23.292;2023-05-10T06:02:17;20.23;;;12.02;;
30934;SDS011;51033;42.648;23.292;2023-05-10T06:04:43;16.70;;;11.85;;
30934;SDS011;51033;42.648;23.292;2023-05-10T06:07:08;14.82;;;10.98;;
30934;SDS011;51033;42.648;23.292;2023-05-10T06:09:33;20.67;;;13.10;;
30934;SDS011;51033;42.648;23.292;2023-05-10T06:11:59;18.75;;;12.48;;
30934;SDS011;51033;42.648;23.292;2023-05-10T06:14:24;17.30;;;12.95;;
30934;SDS011;51033;42.648;23.292;2023-05-10T06:16:50;16.98;;;11.48;;
30934;SDS011;51033;42.648;23.292;2023-05-10T06:19:15;17.83;;;12.43;;
30934;SDS011;51033;42.648;23.292;2023-05-10T06:21:41;18.92;;;11.82;;
30934;SDS011;51033;42.648;23.292;2023-05-10T06:24:07;19.63;;;12.38;;
30934;SDS011;51033;42.648;23.292;2023-05-10T06:26:33;18.92;;;12.88;;
30934;SDS011;51033;42.648;23.292;2023-05-10T06:28:58;19.73;;;13.38;;
30934;SDS011;51033;42.648;23.292;2023-05-10T06:31:24;18.05;;;12.68;;
30934;SDS011;51033;42.648;23.292;2023-05-10T06:33:49;18.00;;;12.40;;
30934;SDS011;51033;42.648;23.292;2023-05-10T06:36:14;15.23;;;11.07;;
30934;SDS011;51033;42.648;23.292;2023-05-10T06:38:40;21.90;;;13.57;;
30934;SDS011;51033;42.648;23.292;2023-05-10T06:41:05;19.67;;;12.88;;
30934;SDS011;51033;42.648;23.292;2023-05-10T06:43:31;16.48;;;11.63;;
30934;SDS011;51033;42.648;23.292;2023-05-10T06:45:56;18.15;;;12.02;;
30934;SDS011;51033;42.648;23.292;2023-05-10T06:48:22;17.10;;;11.57;;
30934;SDS011;51033;42.648;23.292;2023-05-10T06:50:47;17.25;;;12.30;;
30934;SDS011;51033;42.648;23.292;2023-05-10T06:53:13;18.60;;;12.70;;
30934;SDS011;51033;42.648;23.292;2023-05-10T06:55:38;16.42;;;11.85;;
30934;SDS011;51033;42.648;23.292;2023-05-10T06:58:04;16.73;;;11.82;;
30934;SDS011;51033;42.648;23.292;2023-05-10T07:00:30;18.83;;;12.60;;
30934;SDS011;51033;42.648;23.292;2023-05-10T07:02:55;19.52;;;12.70;;
30934;SDS011;51033;42.648;23.292;2023-05-10T07:05:20;17.23;;;11.43;;
30934;SDS011;51033;42.648;23.292;2023-05-10T07:07:46;15.57;;;12.18;;
30934;SDS011;51033;42.648;23.292;2023-05-10T07:10:12;17.55;;;12.23;;
30934;SDS011;51033;42.648;23.292;2023-05-10T07:12:38;21.35;;;12.13;;
30934;SDS011;51033;42.648;23.292;2023-05-10T07:15:04;18.02;;;11.75;;
30934;SDS011;51033;42.648;23.292;2023-05-10T07:17:30;23.50;;;11.63;;
30934;SDS011;51033;42.648;23.292;2023-05-10T07:19:55;22.88;;;11.95;;
30934;SDS011;51033;42.648;23.292;2023-05-10T07:22:20;16.38;;;12.23;;
30934;SDS011;51033;42.648;23.292;2023-05-10T07:24:46;14.65;;;10.70;;
30934;SDS011;51033;42.648;23.292;2023-05-10T07:27:11;15.63;;;11.07;;
30934;SDS011;51033;42.648;23.292;2023-05-10T07:29:37;17.48;;;12.43;;
30934;SDS011;51033;42.648;23.292;2023-05-10T07:32:03;16.55;;;12.15;;
30934;SDS011;51033;42.648;23.292;2023-05-10T07:34:29;15.90;;;12.43;;
30934;SDS011;51033;42.648;23.292;2023-05-10T07:36:56;18.98;;;12.10;;
30934;SDS011;51033;42.648;23.292;2023-05-10T07:39:23;17.75;;;12.05;;
30934;SDS011;51033;42.648;23.292;2023-05-10T07:41:49;17.80;;;11.82;;
30934;SDS011;51033;42.648;23.292;2023-05-10T07:44:15;18.95;;;13.23;;
30934;SDS011;51033;42.648;23.292;2023-05-10T07:46:43;21.17;;;13.32;;
30934;SDS011;51033;42.648;23.292;2023-05-10T07:49:08;20.77;;;13.18;;
30934;SDS011;51033;42.648;23.292;2023-05-10T07:51:34;14.75;;;11.63;;
30934;SDS011;51033;42.648;23.292;2023-05-10T07:53:59;18.60;;;12.02;;
30934;SDS011;51033;42.648;23.292;2023-05-10T07:58:52;18.60;;;13.60;;
30934;SDS011;51033;42.648;23.292;2023-05-10T08:01:19;17.40;;;12.20;;
30934;SDS011;51033;42.648;23.292;2023-05-10T08:03:44;17.30;;;11.30;;
30934;SDS011;51033;42.648;23.292;2023-05-10T08:06:10;21.17;;;15.27;;
30934;SDS011;51033;42.648;23.292;2023-05-10T08:08:36;20.80;;;13.40;;
30934;SDS011;51033;42.648;23.292;2023-05-10T08:11:01;20.27;;;14.20;;
30934;SDS011;51033;42.648;23.292;2023-05-10T08:13:27;18.42;;;13.45;;
30934;SDS011;51033;42.648;23.292;2023-05-10T08:15:53;16.70;;;12.80;;
30934;SDS011;51033;42.648;23.292;2023-05-10T08:18:18;16.42;;;13.07;;
30934;SDS011;51033;42.648;23.292;2023-05-10T08:20:44;18.95;;;13.40;;
30934;SDS011;51033;42.648;23.292;2023-05-10T08:23:09;18.40;;;12.32;;
30934;SDS011;51033;42.648;23.292;2023-05-10T08:25:37;20.08;;;13.50;;
30934;SDS011;51033;42.648;23.292;2023-05-10T08:28:03;15.38;;;12.07;;
30934;SDS011;51033;42.648;23.292;2023-05-10T08:30:28;18.15;;;12.98;;
30934;SDS011;51033;42.648;23.292;2023-05-10T08:32:54;18.40;;;12.63;;
30934;SDS011;51033;42.648;23.292;2023-05-10T08:35:19;15.02;;;11.73;;
30934;SDS011;51033;42.648;23.292;2023-05-10T08:37:45;19.42;;;12.82;;
30934;SDS011;51033;42.648;23.292;2023-05-10T08:40:11;18.10;;;14.07;;
30934;SDS011;51033;42.648;23.292;2023-05-10T08:42:36;18.05;;;13.35;;
30934;SDS011;51033;42.648;23.292;2023-05-10T08:45:05;18.05;;;13.82;;
30934;SDS011;51033;42.648;23.292;2023-05-10T08:47:35;17.38;;;12.98;;
30934;SDS011;51033;42.648;23.292;2023-05-10T08:50:03;17.70;;;12.55;;
30934;SDS011;51033;42.648;23.292;2023-05-10T08:52:28;19.02;;;14.48;;
30934;SDS011;51033;42.648;23.292;2023-05-10T08:54:55;21.05;;;14.93;;
30934;SDS011;51033;42.648;23.292;2023-05-10T08:57:21;16.58;;;13.85;;
30934;SDS011;51033;42.648;23.292;2023-05-10T08:59:46;18.23;;;13.55;;
30934;SDS011;51033;42.648;23.292;2023-05-10T09:02:12;17.58;;;14.10;;
30934;SDS011;51033;42.648;23.292;2023-05-10T09:04:38;18.40;;;14.88;;
30934;SDS011;51033;42.648;23.292;2023-05-10T09:07:03;19.73;;;14.50;;
30934;SDS011;51033;42.648;23.292;2023-05-10T09:09:29;17.90;;;13.77;;
30934;SDS011;51033;42.648;23.292;2023-05-10T09:11:56;84.82;;;16.75;;
30934;SDS011;51033;42.648;23.292;2023-05-10T09:14:21;20.92;;;15.27;;
30934;SDS011;51033;42.648;23.292;2023-05-10T09:16:49;18.30;;;14.50;;
30934;SDS011;51033;42.648;23.292;2023-05-10T09:19:15;20.27;;;15.48;;
30934;SDS011;51033;42.648;23.292;2023-05-10T09:21:41;18.83;;;15.52;;
30934;SDS011;51033;42.648;23.292;2023-05-10T09:24:07;21.48;;;14.60;;
30934;SDS011;51033;42.648;23.292;2023-05-10T09:26:33;19.05;;;15.30;;
30934;SDS011;51033;42.648;23.292;2023-05-10T09:29:01;20.88;;;15.10;;
30934;SDS011;51033;42.648;23.292;2023-05-10T09:31:44;19.33;;;15.60;;
30934;SDS011;51033;42.648;23.292;2023-05-10T09:34:19;20.92;;;15.00;;
30934;SDS011;51033;42.648;23.292;2023-05-10T09:36:54;19.77;;;15.13;;
30934;SDS011;51033;42.648;23.292;2023-05-10T09:39:29;19.45;;;14.20;;
30934;SDS011;51033;42.648;23.292;2023-05-10T09:42:08;21.25;;;16.13;;
30934;SDS011;51033;42.648;23.292;2023-05-10T09:44:34;19.73;;;14.88;;
30934;SDS011;51033;42.648;23.292;2023-05-10T09:47:00;19.52;;;14.60;;
30934;SDS011;51033;42.648;23.292;2023-05-10T09:49:26;19.30;;;14.65;;
30934;SDS011;51033;42.648;23.292;2023-05-10T09:52:02;19.90;;;16.42;;
30934;SDS011;51033;42.648;23.292;2023-05-10T09:54:29;19.98;;;15.50;;
30934;SDS011;51033;42.648;23.292;2023-05-10T09:56:55;19.08;;;15.73;;
30934;SDS011;51033;42.648;23.292;2023-05-10T09:59:21;21.20;;;14.80;;
30934;SDS011;51033;42.648;23.292;2023-05-10T10:01:49;19.77;;;14.88;;
30934;SDS011;51033;42.648;23.292;2023-05-10T10:04:16;16.77;;;13.10;;
30934;SDS011;51033;42.648;23.292;2023-05-10T10:06:42;19.33;;;14.75;;
30934;SDS011;51033;42.648;23.292;2023-05-10T10:09:07;17.48;;;13.30;;
30934;SDS011;51033;42.648;23.292;2023-05-10T10:11:35;20.58;;;14.77;;
30934;SDS011;51033;42.648;23.292;2023-05-10T10:14:01;18.45;;;14.63;;
30934;SDS011;51033;42.648;23.292;2023-05-10T10:16:28;21.80;;;15.68;;
30934;SDS011;51033;42.648;23.292;2023-05-10T10:18:55;20.45;;;14.20;;
30934;SDS011;51033;42.648;23.292;2023-05-10T10:21:21;20.42;;;14.60;;
30934;SDS011;51033;42.648;23.292;2023-05-10T10:23:47;16.98;;;14.30;;
30934;SDS011;51033;42.648;23.292;2023-05-10T10:26:12;17.88;;;13.73;;
30934;SDS011;51033;42.648;23.292;2023-05-10T10:28:41;22.52;;;16.08;;
30934;SDS011;51033;42.648;23.292;2023-05-10T10:31:17;18.65;;;14.90;;
30934;SDS011;51033;42.648;23.292;2023-05-10T10:33:55;21.00;;;16.02;;
30934;SDS011;51033;42.648;23.292;2023-05-10T10:36:24;20.60;;;16.30;;
30934;SDS011;51033;42.648;23.292;2023-05-10T10:41:28;21.23;;;14.10;;
30934;SDS011;51033;42.648;23.292;2023-05-10T10:49:38;15.55;;;13.43;;
30934;SDS011;51033;42.648;23.292;2023-05-10T10:57:23;17.83;;;13.10;;
30934;SDS011;51033;42.648;23.292;2023-05-10T10:59:51;14.20;;;12.70;;
30934;SDS011;51033;42.648;23.292;2023-05-10T11:02:34;18.02;;;12.90;;
30934;SDS011;51033;42.648;23.292;2023-05-10T11:05:23;19.40;;;13.38;;
30934;SDS011;51033;42.648;23.292;2023-05-10T11:07:59;18.73;;;12.43;;
30934;SDS011;51033;42.648;23.292;2023-05-10T11:10:25;16.48;;;13.63;;
30934;SDS011;51033;42.648;23.292;2023-05-10T11:13:08;18.10;;;12.68;;
30934;SDS011;51033;42.648;23.292;2023-05-10T11:15:38;14.25;;;12.52;;
30934;SDS011;51033;42.648;23.292;2023-05-10T11:18:17;15.15;;;12.98;;
30934;SDS011;51033;42.648;23.292;2023-05-10T11:20:44;16.63;;;12.90;;
30934;SDS011;51033;42.648;23.292;2023-05-10T11:23:14;18.02;;;13.40;;
30934;SDS011;51033;42.648;23.292;2023-05-10T11:25:44;14.05;;;12.15;;
30934;SDS011;51033;42.648;23.292;2023-05-10T11:28:11;16.52;;;12.63;;
30934;SDS011;51033;42.648;23.292;2023-05-10T11:30:40;17.55;;;13.18;;
30934;SDS011;51033;42.648;23.292;2023-05-10T11:33:07;17.08;;;13.30;;
30934;SDS011;51033;42.648;23.292;2023-05-10T11:35:37;17.65;;;13.32;;
30934;SDS011;51033;42.648;23.292;2023-05-10T11:38:07;16.70;;;12.15;;
30934;SDS011;51033;42.648;23.292;2023-05-10T11:40:33;18.15;;;13.30;;
30934;SDS011;51033;42.648;23.292;2023-05-10T11:42:59;13.85;;;11.43;;
30934;SDS011;51033;42.648;23.292;2023-05-10T11:45:24;16.15;;;12.45;;
30934;SDS011;51033;42.648;23.292;2023-05-10T11:47:51;16.83;;;12.13;;
30934;SDS011;51033;42.648;23.292;2023-05-10T11:50:17;14.05;;;11.75;;
30934;SDS011;51033;42.648;23.292;2023-05-10T11:52:43;18.75;;;13.43;;
30934;SDS011;51033;42.648;23.292;2023-05-10T11:55:08;16.27;;;12.70;;
30934;SDS011;51033;42.648;23.292;2023-05-10T11:57:34;15.68;;;11.82;;
30934;SDS011;51033;42.648;23.292;2023-05-10T12:00:03;17.95;;;12.98;;
30934;SDS011;51033;42.648;23.292;2023-05-10T12:02:29;21.10;;;12.77;;
30934;SDS011;51033;42.648;23.292;2023-05-10T12:04:55;16.35;;;13.65;;
30934;SDS011;51033;42.648;23.292;2023-05-10T12:07:21;14.38;;;12.35;;
30934;SDS011;51033;42.648;23.292;2023-05-10T12:12:36;17.08;;;13.68;;
30934;SDS011;51033;42.648;23.292;2023-05-10T12:15:03;15.98;;;13.00;;
30934;SDS011;51033;42.648;23.292;2023-05-10T12:17:29;15.90;;;13.07;;
30934;SDS011;51033;42.648;23.292;2023-05-10T12:19:58;16.52;;;13.00;;
30934;SDS011;51033;42.648;23.292;2023-05-10T12:22:37;17.45;;;12.95;;
30934;SDS011;51033;42.648;23.292;2023-05-10T12:25:03;18.48;;;13.38;;
30934;SDS011;51033;42.648;23.292;2023-05-10T12:27:33;15.55;;;13.60;;
30934;SDS011;51033;42.648;23.292;2023-05-10T12:29:59;16.55;;;12.80;;
30934;SDS011;51033;42.648;23.292;2023-05-10T12:32:37;18.48;;;14.13;;
30934;SDS011;51033;42.648;23.292;2023-05-10T12:35:07;16.33;;;13.10;;
30934;SDS011;51033;42.648;23.292;2023-05-10T12:37:33;18.00;;;13.45;;
30934;SDS011;51033;42.648;23.292;2023-05-10T12:40:04;18.55;;;13.98;;
30934;SDS011;51033;42.648;23.292;2023-05-10T12:42:31;20.13;;;13.35;;
30934;SDS011;51033;42.648;23.292;2023-05-10T12:44:57;19.75;;;14.18;;
30934;SDS011;51033;42.648;23.292;2023-05-10T12:47:22;16.92;;;12.30;;
30934;SDS011;51033;42.648;23.292;2023-05-10T12:49:48;17.42;;;14.00;;
30934;SDS011;51033;42.648;23.292;2023-05-10T12:52:13;22.30;;;15.95;;
30934;SDS011;51033;42.648;23.292;2023-05-10T12:54:38;19.80;;;14.13;;
30934;SDS011;51033;42.648;23.292;2023-05-10T12:57:04;18.88;;;13.93;;
30934;SDS011;51033;42.648;23.292;2023-05-10T12:59:29;19.05;;;14.20;;
30934;SDS011;51033;42.648;23.292;2023-05-10T13:01:56;23.02;;;14.73;;
30934;SDS011;51033;42.648;23.292;2023-05-10T13:04:22;15.45;;;12.68;;
30934;SDS011;51033;42.648;23.292;2023-05-10T13:06:47;14.27;;;12.73;;
30934;SDS011;51033;42.648;23.292;2023-05-10T13:09:13;16.40;;;13.48;;
30934;SDS011;51033;42.648;23.292;2023-05-10T13:11:38;21.33;;;12.45;;
30934;SDS011;51033;42.648;23.292;2023-05-10T13:14:04;15.50;;;12.95;;
30934;SDS011;51033;42.648;23.292;2023-05-10T13:16:29;13.52;;;12.05;;
30934;SDS011;51033;42.648;23.292;2023-05-10T13:18:55;16.58;;;12.65;;
30934;SDS011;51033;42.648;23.292;2023-05-10T13:21:20;15.98;;;12.15;;
30934;SDS011;51033;42.648;23.292;2023-05-10T13:23:46;18.52;;;12.15;;
30934;SDS011;51033;42.648;23.292;2023-05-10T13:26:11;15.00;;;12.00;;
30934;SDS011;51033;42.648;23.292;2023-05-10T13:28:37;18.83;;;12.95;;
30934;SDS011;51033;42.648;23.292;2023-05-10T13:31:03;16.65;;;12.38;;
30934;SDS011;51033;42.648;23.292;2023-05-10T13:33:30;16.73;;;12.88;;
30934;SDS011;51033;42.648;23.292;2023-05-10T13:35:55;19.70;;;12.48;;
30934;SDS011;51033;42.648;23.292;2023-05-10T13:38:21;16.73;;;12.45;;
30934;SDS011;51033;42.648;23.292;2023-05-10T13:40:46;16.75;;;11.88;;
30934;SDS011;51033;42.648;23.292;2023-05-10T13:43:12;19.23;;;12.88;;
30934;SDS011;51033;42.648;23.292;2023-05-10T13:45:37;16.30;;;10.95;;
30934;SDS011;51033;42.648;23.292;2023-05-10T13:48:03;18.92;;;12.52;;
30934;SDS011;51033;42.648;23.292;2023-05-10T13:50:29;14.88;;;11.48;;
30934;SDS011;51033;42.648;23.292;2023-05-10T13:52:55;13.70;;;11.95;;
30934;SDS011;51033;42.648;23.292;2023-05-10T13:58:42;15.40;;;11.90;;
30934;SDS011;51033;42.648;23.292;2023-05-10T14:01:07;16.38;;;12.23;;
30934;SDS011;51033;42.648;23.292;2023-05-10T14:03:33;18.00;;;12.18;;
30934;SDS011;51033;42.648;23.292;2023-05-10T14:05:58;16.75;;;11.30;;
30934;SDS011;51033;42.648;23.292;2023-05-10T14:08:24;14.32;;;11.77;;
30934;SDS011;51033;42.648;23.292;2023-05-10T14:10:52;15.13;;;12.65;;
30934;SDS011;51033;42.648;23.292;2023-05-10T14:13:17;16.38;;;12.00;;
30934;SDS011;51033;42.648;23.292;2023-05-10T14:15:43;17.35;;;12.85;;
30934;SDS011;51033;42.648;23.292;2023-05-10T14:18:08;16.67;;;11.45;;
30934;SDS011;51033;42.648;23.292;2023-05-10T14:20:33;15.23;;;11.52;;
30934;SDS011;51033;42.648;23.292;2023-05-10T14:22:59;13.23;;;10.45;;
30934;SDS011;51033;42.648;23.292;2023-05-10T14:25:25;15.02;;;11.20;;
30934;SDS011;51033;42.648;23.292;2023-05-10T14:27:50;13.82;;;11.48;;
30934;SDS011;51033;42.648;23.292;2023-05-10T14:30:16;16.38;;;11.90;;
30934;SDS011;51033;42.648;23.292;2023-05-10T14:32:41;13.40;;;10.95;;
30934;SDS011;51033;42.648;23.292;2023-05-10T14:35:07;12.45;;;10.85;;
30934;SDS011;51033;42.648;23.292;2023-05-10T14:37:32;16.83;;;11.45;;
30934;SDS011;51033;42.648;23.292;2023-05-10T14:39:58;14.73;;;10.88;;
30934;SDS011;51033;42.648;23.292;2023-05-10T14:42:23;13.95;;;11.55;;
30934;SDS011;51033;42.648;23.292;2023-05-10T14:44:49;15.38;;;12.48;;
30934;SDS011;51033;42.648;23.292;2023-05-10T14:47:14;16.20;;;12.27;;
30934;SDS011;51033;42.648;23.292;2023-05-10T14:49:40;16.75;;;12.85;;
30934;SDS011;51033;42.648;23.292;2023-05-10T14:55:27;14.85;;;12.23;;
30934;SDS011;51033;42.648;23.292;2023-05-10T14:57:53;17.60;;;14.00;;
30934;SDS011;51033;42.648;23.292;2023-05-10T15:00:19;16.27;;;12.32;;